Time;durP1;ratioP1;P1;durP2;ratioP2;P2;SDS_P1;SDS_P2;PMS_P1;PMS_P2;Temp;Humidity;BMP_temperature;BMP_pressure;BME280_temperature;BME280_humidity;BME280_pressure;Samples;Min_cycle;Max_cycle;Signal;HPM_P1;HPM_P2
2022/12/15 00:39:09;;;;;;;32.23;18.63;;;-6.00;99.90;;;;;;6042250;23;20039;-83
2022/12/15 00:41:55;;;;;;;34.03;17.77;;;-5.00;99.90;;;;;;6018890;23;20354;-83
2022/12/15 00:44:39;;;;;;;;;;;-6.50;99.90;;;;;;6070474;23;20117;-83
2022/12/15 00:47:05;;;;;;;36.37;18.40;;;-6.70;99.90;;;;;;6096685;23;19921;-83
2022/12/15 01:23:03;;;;;;;31.07;16.57;;;-5.90;99.90;;;;;;6071827;23;20022;-84
2022/12/15 01:28:24;;;;;;;32.07;17.20;;;-4.40;99.90;;;;;;6097580;23;20015;-83
2022/12/15 01:31:10;;;;;;;32.33;17.13;;;-6.50;99.90;;;;;;6111958;23;20404;-83
2022/12/15 01:33:42;;;;;;;32.97;17.93;;;-5.80;99.90;;;;;;6094548;23;20448;-83
2022/12/15 01:36:08;;;;;;;34.33;18.50;;;-6.00;99.90;;;;;;6072910;23;20024;-84
2022/12/15 01:39:18;;;;;;;33.10;17.90;;;-4.30;99.90;;;;;;6067734;23;20022;-84
2022/12/15 01:41:44;;;;;;;34.53;18.07;;;-7.10;99.90;;;;;;6066786;23;20023;-83
2022/12/15 01:47:33;;;;;;;32.57;17.27;;;-6.90;99.90;;;;;;6042307;23;20460;-84
2022/12/15 01:50:36;;;;;;;33.20;17.73;;;-6.20;99.90;;;;;;6067435;23;20023;-83
2022/12/15 01:53:48;;;;;;;33.10;18.10;;;-4.70;99.90;;;;;;6068161;23;20021;-84
2022/12/15 01:56:15;;;;;;;34.93;18.67;;;-5.60;99.90;;;;;;6069056;23;20019;-83
2022/12/15 01:58:59;;;;;;;;;;;;;;;;;;;;;
2022/12/15 02:01:45;;;;;;;37.93;18.50;;;-5.50;99.90;;;;;;6068194;23;20019;-84
2022/12/15 02:04:16;;;;;;;36.20;18.83;;;-6.30;99.90;;;;;;6073033;23;20042;-83
2022/12/15 02:06:45;;;;;;;34.40;18.17;;;-5.20;99.90;;;;;;6071915;23;20027;-83
2022/12/15 02:09:44;;;;;;;34.20;17.73;;;-5.70;99.90;;;;;;6068218;23;20021;-83
2022/12/15 02:13:18;;;;;;;33.90;16.80;;;-6.30;99.90;;;;;;6075228;23;20022;-83
2022/12/15 02:16:35;;;;;;;36.00;18.43;;;-6.20;99.90;;;;;;6071368;23;20025;-84
2022/12/15 02:19:41;;;;;;;35.67;18.03;;;-6.40;99.90;;;;;;6095820;23;20059;-84
2022/12/15 02:22:34;;;;;;;34.33;17.77;;;-4.60;99.90;;;;;;6068799;23;20030;-83
2022/12/15 02:29:30;;;;;;;35.13;18.70;;;-6.50;99.90;;;;;;5987303;23;20024;-84
2022/12/15 02:32:12;;;;;;;39.33;19.60;;;-5.70;99.90;;;;;;6071630;23;20029;-83
2022/12/15 02:35:11;;;;;;;36.27;18.17;;;-5.10;99.90;;;;;;6095957;23;20057;-84
2022/12/15 02:37:40;;;;;;;33.83;18.90;;;-6.20;99.90;;;;;;6097292;23;20019;-84
2022/12/15 02:40:47;;;;;;;33.77;17.93;;;-5.00;99.90;;;;;;6086467;23;20026;-83
2022/12/15 02:43:19;;;;;;;34.10;18.37;;;-4.70;99.90;;;;;;6096494;23;20377;-84
2022/12/15 02:46:24;;;;;;;33.13;17.47;;;-6.10;99.90;;;;;;6097616;23;20018;-83
2022/12/15 02:52:58;;;;;;;35.13;17.40;;;-4.30;99.90;;;;;;6097170;23;20450;-83
2022/12/15 02:56:14;;;;;;;34.10;17.93;;;-5.50;99.90;;;;;;6096015;23;20041;-83
2022/12/15 03:13:06;;;;;;;34.67;18.63;;;-5.60;99.90;;;;;;6069139;23;20021;-83
2022/12/15 03:15:51;;;;;;;32.97;18.33;;;-5.20;99.90;;;;;;6077034;23;20125;-83
2022/12/15 03:26:57;;;;;;;36.17;19.67;;;-6.50;99.90;;;;;;6008068;23;20059;-85
2022/12/15 03:29:49;;;;;;;;;;;-6.20;99.90;;;;;;5960610;23;20020;-84
2022/12/15 03:36:33;;;;;;;34.23;18.73;;;-6.50;99.90;;;;;;6030253;23;20500;-84
2022/12/15 03:38:59;;;;;;;36.10;18.57;;;-5.30;99.90;;;;;;6036142;23;20016;-85
2022/12/15 03:41:37;;;;;;;34.90;19.93;;;-4.50;99.90;;;;;;6036398;23;20468;-84
2022/12/15 03:44:21;;;;;;;42.27;19.87;;;-6.10;99.90;;;;;;6012446;23;20027;-85
2022/12/15 03:50:48;;;;;;;35.07;18.23;;;-4.90;99.90;;;;;;6039207;23;20054;-85
2022/12/15 03:53:20;;;;;;;35.97;18.47;;;-6.00;99.90;;;;;;6012272;23;20480;-84
2022/12/15 03:56:10;;;;;;;32.63;18.17;;;-4.70;99.90;;;;;;6036647;23;20112;-84
2022/12/15 03:58:41;;;;;;;37.33;18.33;;;-5.40;99.90;;;;;;6012992;23;20030;-84
2022/12/15 04:01:33;;;;;;;32.87;17.20;;;-5.40;99.90;;;;;;6012769;23;20063;-84
2022/12/15 04:04:08;;;;;;;33.40;17.03;;;-6.40;99.90;;;;;;6057256;23;20025;-84
2022/12/15 04:06:34;;;;;;;32.67;18.60;;;-3.20;99.90;;;;;;6070048;23;20705;-84
2022/12/15 04:08:59;;;;;;;33.43;17.40;;;-5.80;99.90;;;;;;6070632;23;20026;-84
2022/12/15 04:11:49;;;;;;;35.33;18.63;;;-3.40;99.90;;;;;;6007233;23;20075;-84
2022/12/15 04:14:41;;;;;;;34.57;18.47;;;-4.30;99.90;;;;;;6061545;23;20029;-84
2022/12/15 04:17:21;;;;;;;33.13;17.60;;;-4.70;99.90;;;;;;5980143;24;20060;-84
2022/12/15 04:20:14;;;;;;;32.83;17.53;;;-6.10;99.90;;;;;;5955391;24;20031;-84
2022/12/15 04:22:59;;;;;;;33.07;17.90;;;-6.20;99.90;;;;;;5980561;24;20028;-84
2022/12/15 05:34:11;;;;;;;34.20;16.83;;;-4.40;99.90;;;;;;6168079;23;20028;-84
2022/12/15 05:36:46;;;;;;;33.27;16.80;;;-5.60;99.90;;;;;;6130001;23;20017;-84
2022/12/15 05:39:12;;;;;;;31.83;17.07;;;-7.00;99.90;;;;;;6129982;23;20450;-84
2022/12/15 05:42:05;;;;;;;32.87;17.43;;;-6.00;99.90;;;;;;6156894;23;20017;-84
2022/12/15 05:44:46;;;;;;;31.60;16.47;;;-6.60;99.90;;;;;;6129026;23;20036;-84
2022/12/15 05:47:33;;;;;;;37.20;17.30;;;-4.60;99.90;;;;;;6080278;23;20053;-84
2022/12/15 05:50:32;;;;;;;31.97;16.53;;;-7.00;99.90;;;;;;6155275;23;20076;-84
2022/12/15 05:53:01;;;;;;;33.43;17.70;;;-5.50;99.90;;;;;;6129466;23;20100;-84
2022/12/15 05:56:14;;;;;;;32.13;17.07;;;-6.00;99.90;;;;;;6134238;23;20017;-84
2022/12/15 05:58:42;;;;;;;32.27;17.13;;;-4.80;99.90;;;;;;6155760;23;20021;-84
2022/12/15 06:04:46;;;;;;;30.70;16.63;;;-6.30;99.90;;;;;;6120206;23;20041;-84
2022/12/15 06:07:18;;;;;;;33.27;17.23;;;-4.40;99.90;;;;;;6121913;23;20021;-84
2022/12/15 06:10:28;;;;;;;34.40;17.43;;;-6.40;99.90;;;;;;6131858;23;20085;-83
2022/12/15 06:12:54;;;;;;;35.37;18.03;;;-5.50;99.90;;;;;;5956356;24;20020;-83
2022/12/15 06:15:20;;;;;;;35.03;17.67;;;-6.00;99.90;;;;;;6042927;23;20022;-84
2022/12/15 06:18:04;;;;;;;32.30;17.50;;;-6.30;99.90;;;;;;6070748;23;20105;-84
2022/12/15 06:20:45;;;;;;;33.27;17.17;;;-5.30;99.90;;;;;;6096924;23;20028;-84
2022/12/15 06:23:20;;;;;;;36.63;18.80;;;-5.90;99.90;;;;;;6095676;23;20404;-84
2022/12/15 06:25:59;;;;;;;34.87;17.80;;;-6.30;99.90;;;;;;6096714;23;20014;-84
2022/12/15 06:28:31;;;;;;;34.23;16.77;;;-6.70;99.90;;;;;;6097290;23;20018;-83
2022/12/15 06:34:26;;;;;;;33.70;17.07;;;-6.20;99.90;;;;;;6097529;23;20332;-83
2022/12/15 06:37:58;;;;;;;31.37;16.10;;;-7.10;99.90;;;;;;6095114;23;20478;-84
2022/12/15 06:41:13;;;;;;;31.20;16.10;;;-5.40;99.90;;;;;;6095200;23;20033;-82
2022/12/15 06:43:49;;;;;;;32.72;15.88;;;-6.30;99.90;;;;;;6105785;23;20040;-84
2022/12/15 06:46:19;;;;;;;30.53;16.63;;;-6.60;99.90;;;;;;6095838;23;20454;-84
2022/12/15 06:48:47;;;;;;;30.57;17.00;;;-6.50;99.90;;;;;;6095273;23;20041;-84
2022/12/15 06:51:15;;;;;;;30.30;16.50;;;-6.80;99.90;;;;;;6097388;23;20093;-84
2022/12/15 06:54:00;;;;;;;30.33;16.30;;;-6.80;99.90;;;;;;6096473;23;20050;-84
2022/12/15 06:56:35;;;;;;;37.70;17.17;;;-5.30;99.90;;;;;;6095175;23;20120;-84
2022/12/15 06:59:05;;;;;;;33.07;17.17;;;-5.50;99.90;;;;;;6096888;23;20028;-84
2022/12/15 07:04:37;;;;;;;31.23;16.93;;;-4.90;99.90;;;;;;6095540;23;20077;-83
2022/12/15 07:07:12;;;;;;;37.27;18.50;;;-7.60;99.90;;;;;;6097454;23;20014;-83
2022/12/15 07:09:44;;;;;;;34.63;18.33;;;-6.50;99.90;;;;;;6093542;23;20510;-82
2022/12/15 07:12:11;;;;;;;35.30;18.07;;;-6.50;99.90;;;;;;6095276;23;20019;-82
2022/12/15 07:14:37;;;;;;;37.57;17.60;;;-6.40;99.90;;;;;;6094510;23;20025;-81
2022/12/15 07:17:02;;;;;;;34.30;16.57;;;-6.30;99.90;;;;;;6100157;23;20019;-81
2022/12/15 07:19:28;;;;;;;32.00;16.40;;;-6.30;99.90;;;;;;6100124;23;20462;-80
2022/12/15 07:22:06;;;;;;;34.50;16.77;;;-6.30;99.90;;;;;;6122262;23;20103;-81
2022/12/15 07:24:32;;;;;;;32.57;15.77;;;-5.50;99.90;;;;;;6158466;23;20020;-81
2022/12/15 07:26:58;;;;;;;32.83;15.90;;;-6.50;99.90;;;;;;6158860;23;20459;-80
2022/12/15 07:29:23;;;;;;;28.63;15.33;;;-6.60;99.90;;;;;;6157689;23;20012;-81
2022/12/15 07:31:49;;;;;;;28.67;14.37;;;-6.60;99.90;;;;;;6185052;23;20446;-80
2022/12/15 07:34:15;;;;;;;31.73;15.73;;;-6.50;99.90;;;;;;6157133;23;20017;-81
2022/12/15 07:36:43;;;;;;;29.87;16.10;;;-6.50;99.90;;;;;;6184382;23;20441;-81
2022/12/15 07:39:33;;;;;;;31.02;16.98;;;-6.30;99.90;;;;;;6119566;23;20063;-80
2022/12/15 07:42:02;;;;;;;40.83;17.93;;;-6.70;99.90;;;;;;6185628;23;20059;-81
2022/12/15 07:44:27;;;;;;;35.57;18.10;;;-6.60;99.90;;;;;;6184282;23;20028;-81
2022/12/15 07:47:05;;;;;;;32.77;17.10;;;-6.30;99.90;;;;;;6158789;23;20021;-81
2022/12/15 07:49:37;;;;;;;36.57;18.40;;;-5.80;99.90;;;;;;6157735;23;20024;-81
2022/12/15 07:52:22;;;;;;;37.30;18.00;;;-6.30;99.90;;;;;;6158392;23;20028;-80
2022/12/15 07:54:57;;;;;;;35.50;17.93;;;-6.20;99.90;;;;;;6158531;23;20112;-81
2022/12/15 07:57:23;;;;;;;38.67;21.97;;;-5.20;99.90;;;;;;6157224;23;20017;-81
2022/12/15 07:59:51;;;;;;;38.03;19.17;;;-5.20;99.90;;;;;;6178158;23;20318;-81
2022/12/15 08:02:17;;;;;;;46.70;23.83;;;-5.70;99.90;;;;;;6184937;23;20020;-81
2022/12/15 08:04:46;;;;;;;38.20;19.27;;;-5.40;99.90;;;;;;6183951;23;20040;-81
2022/12/15 08:07:12;;;;;;;36.40;19.77;;;-5.50;99.90;;;;;;6156599;23;20057;-81
2022/12/15 08:09:56;;;;;;;37.00;18.97;;;-3.90;99.90;;;;;;6159880;23;20013;-80
2022/12/15 08:12:30;;;;;;;38.80;18.20;;;-5.20;99.90;;;;;;6160058;23;20112;-81
2022/12/15 08:15:06;;;;;;;38.23;18.90;;;-5.30;99.90;;;;;;6158177;23;20025;-81
2022/12/15 08:17:37;;;;;;;34.23;18.17;;;-4.90;99.90;;;;;;6157741;23;20020;-81
2022/12/15 08:20:09;;;;;;;35.57;19.03;;;-5.00;99.90;;;;;;6119583;23;20102;-82
2022/12/15 08:23:17;;;;;;;38.50;20.43;;;-4.90;99.90;;;;;;5979974;24;20020;-83
2022/12/15 08:25:43;;;;;;;39.30;21.07;;;-5.00;99.90;;;;;;6041185;23;20030;-83
2022/12/15 08:28:23;;;;;;;33.57;18.47;;;-5.00;99.90;;;;;;6053733;23;20023;-84
2022/12/15 08:31:15;;;;;;;36.23;18.67;;;-5.20;99.90;;;;;;6041965;23;20069;-83
2022/12/15 08:33:48;;;;;;;33.07;18.27;;;-3.60;99.90;;;;;;6041238;23;20448;-83
2022/12/15 08:36:16;;;;;;;34.43;18.47;;;-5.10;99.90;;;;;;6067549;23;20019;-83
2022/12/15 08:38:45;;;;;;;45.27;25.03;;;-4.90;99.90;;;;;;6067254;23;20026;-82
2022/12/15 08:41:18;;;;;;;45.80;24.57;;;-4.80;99.90;;;;;;6040997;23;20102;-82
2022/12/15 08:43:45;;;;;;;33.75;19.40;;;-4.70;99.90;;;;;;6067487;23;20015;-81
2022/12/15 08:46:11;;;;;;;37.37;19.97;;;-4.70;99.90;;;;;;6065921;23;20015;-81
2022/12/15 08:48:37;;;;;;;37.23;21.03;;;-4.70;99.90;;;;;;6067408;23;20026;-82
2022/12/15 08:51:07;;;;;;;35.37;20.43;;;-4.70;99.90;;;;;;6067495;23;20010;-82
2022/12/15 08:53:41;;;;;;;35.07;19.60;;;-4.70;99.90;;;;;;6040314;23;20321;-83
2022/12/15 08:56:09;;;;;;;37.07;19.47;;;-4.80;99.90;;;;;;6041629;23;20340;-82
2022/12/15 08:58:35;;;;;;;33.17;18.27;;;-4.80;99.90;;;;;;6042013;23;20144;-82
2022/12/15 09:01:06;;;;;;;32.27;18.83;;;-4.80;99.90;;;;;;6040852;23;20384;-82
2022/12/15 09:03:34;;;;;;;32.17;17.73;;;-4.60;99.90;;;;;;6040466;23;20015;-82
2022/12/15 09:06:11;;;;;;;30.87;17.20;;;-4.60;99.90;;;;;;6041361;23;20041;-83
2022/12/15 09:08:36;;;;;;;31.07;17.50;;;-4.50;99.90;;;;;;6065818;23;20098;-82
2022/12/15 09:11:23;;;;;;;32.17;17.93;;;-4.50;99.90;;;;;;6041919;23;20038;-81
2022/12/15 09:13:49;;;;;;;32.00;18.23;;;-4.10;99.90;;;;;;6066479;23;20029;-81
2022/12/15 09:16:26;;;;;;;33.40;19.07;;;-4.50;99.90;;;;;;6066240;23;20082;-82
2022/12/15 09:19:08;;;;;;;33.17;18.80;;;-3.90;99.90;;;;;;6041500;23;20025;-82
2022/12/15 09:21:49;;;;;;;34.37;18.50;;;-3.20;99.90;;;;;;6040382;23;20503;-82
2022/12/15 09:24:35;;;;;;;32.57;18.63;;;-2.90;99.90;;;;;;6042483;23;20019;-82
2022/12/15 09:27:02;;;;;;;35.57;20.40;;;-4.30;99.90;;;;;;6067982;23;20393;-82
2022/12/15 09:29:52;;;;;;;32.70;18.23;;;-3.90;99.90;;;;;;6041310;23;20098;-82
2022/12/15 09:32:31;;;;;;;34.17;19.63;;;-3.70;99.90;;;;;;6043750;23;20050;-82
2022/12/15 09:35:06;;;;;;;34.63;19.43;;;-3.80;99.90;;;;;;6067909;23;20015;-83
2022/12/15 09:37:41;;;;;;;36.33;18.40;;;-3.60;99.90;;;;;;6068794;23;20050;-83
2022/12/15 09:40:19;;;;;;;31.07;18.13;;;-3.70;99.90;;;;;;6043694;23;20355;-83
2022/12/15 09:43:02;;;;;;;33.20;18.10;;;-4.00;99.90;;;;;;6042970;23;20011;-81
2022/12/15 09:45:43;;;;;;;32.87;18.50;;;-3.30;99.90;;;;;;6069254;23;20086;-81
2022/12/15 09:48:14;;;;;;;33.60;18.57;;;-3.40;99.90;;;;;;6018977;23;20023;-81
2022/12/15 09:50:43;;;;;;;32.40;18.77;;;-3.20;99.90;;;;;;6068449;23;20015;-81
2022/12/15 09:53:11;;;;;;;34.57;19.60;;;-3.10;99.90;;;;;;6076945;23;20033;-81
2022/12/15 09:55:37;;;;;;;33.07;17.90;;;-3.00;99.90;;;;;;6050864;23;20046;-80
2022/12/15 09:58:34;;;;;;;30.27;18.57;;;-2.90;99.90;;;;;;6069517;23;20026;-80
2022/12/15 10:01:25;;;;;;;31.80;18.07;;;-2.80;99.90;;;;;;6072048;23;20015;-81
2022/12/15 10:03:53;;;;;;;29.40;16.97;;;-2.70;99.90;;;;;;6051552;23;20023;-83
2022/12/15 10:06:24;;;;;;;31.67;17.87;;;-2.70;99.90;;;;;;6068519;23;20098;-81
2022/12/15 10:08:56;;;;;;;32.67;17.90;;;-2.60;99.90;;;;;;6068561;23;20375;-80
2022/12/15 10:11:28;;;;;;;30.60;17.33;;;-2.50;99.90;;;;;;6042085;23;20015;-81
2022/12/15 10:14:03;;;;;;;28.53;16.53;;;-2.40;99.90;;;;;;6042870;23;20527;-81
2022/12/15 10:16:44;;;;;;;29.20;16.23;;;-2.30;99.90;;;;;;6042022;23;20045;-80
2022/12/15 10:19:25;;;;;;;30.03;16.47;;;-2.30;99.90;;;;;;6067423;23;20023;-80
2022/12/15 10:21:50;;;;;;;28.57;16.53;;;-2.20;99.90;;;;;;6068813;23;20058;-81
2022/12/15 10:24:16;;;;;;;28.43;16.97;;;-2.10;99.90;;;;;;6067559;23;20396;-82
2022/12/15 10:26:47;;;;;;;29.27;15.90;;;-2.10;99.90;;;;;;6069125;23;20025;-82
2022/12/15 10:29:15;;;;;;;29.43;16.87;;;-2.00;99.90;;;;;;6043244;23;20027;-81
2022/12/15 10:32:06;;;;;;;30.37;15.73;;;-1.90;99.90;;;;;;6053961;23;20021;-82
2022/12/15 10:35:34;;;;;;;29.47;16.03;;;-1.70;99.90;;;;;;6096826;23;20033;-85
2022/12/15 10:46:17;;;;;;;26.87;15.67;;;-1.50;99.90;;;;;;6072843;23;20029;-84
2022/12/15 10:48:51;;;;;;;29.20;16.00;;;-1.40;99.90;;;;;;6097224;23;20018;-82
2022/12/15 10:52:15;;;;;;;27.10;16.20;;;-2.00;99.90;;;;;;6096630;23;20022;-83
2022/12/15 10:54:49;;;;;;;27.27;15.20;;;-1.10;99.90;;;;;;6095340;23;20026;-83
2022/12/15 11:01:34;;;;;;;26.98;16.30;;;-1.90;99.90;;;;;;6068995;23;20030;-82
2022/12/15 11:04:05;;;;;;;26.77;15.40;;;-1.90;99.90;;;;;;6095272;23;20025;-82
2022/12/15 11:06:35;;;;;;;29.00;18.10;;;-1.40;99.90;;;;;;6084799;23;20407;-82
2022/12/15 11:09:38;;;;;;;35.50;19.37;;;-1.00;99.90;;;;;;6094568;23;20015;-82
2022/12/15 11:15:38;;;;;;;28.50;16.07;;;-0.40;99.90;;;;;;6068546;23;20029;-82
2022/12/15 11:18:23;;;;;;;22.50;13.37;;;0.20;99.90;;;;;;6095270;23;20513;-82
2022/12/15 11:21:24;;;;;;;25.47;14.50;;;0.60;99.90;;;;;;6094804;23;20029;-82
2022/12/15 11:24:14;;;;;;;20.00;11.43;;;0.50;99.90;;;;;;6069904;23;20078;-82
2022/12/15 11:26:58;;;;;;;24.87;12.70;;;1.40;99.90;;;;;;6095569;23;20023;-82
2022/12/15 11:29:36;;;;;;;;;;;0.80;99.90;;;;;;6069092;23;20014;-82
2022/12/15 11:32:02;;;;;;;23.60;13.27;;;0.60;99.90;;;;;;6095554;23;19917;-82
2022/12/15 11:35:06;;;;;;;25.97;14.20;;;0.30;99.90;;;;;;6095571;23;20036;-83
2022/12/15 11:38:31;;;;;;;;;;;;;;;;;;;;;
2022/12/15 11:41:43;;;;;;;21.03;12.57;;;1.90;99.90;;;;;;5951585;24;20117;-83
2022/12/15 11:44:57;;;;;;;20.52;12.88;;;0.20;99.90;;;;;;5955520;24;20501;-83
2022/12/15 11:48:16;;;;;;;26.20;15.60;;;0.20;99.90;;;;;;5979757;24;20024;-84
2022/12/15 11:51:16;;;;;;;22.63;13.57;;;1.00;99.90;;;;;;5956145;24;20016;-83
2022/12/15 11:57:43;;;;;;;24.57;14.23;;;-0.40;99.90;;;;;;6095577;23;20081;-83
2022/12/15 12:00:14;;;;;;;23.87;13.50;;;-0.20;99.90;;;;;;6070980;23;20490;-83
2022/12/15 12:03:14;;;;;;;23.00;13.47;;;0.30;99.90;;;;;;6070870;23;20025;-83
2022/12/15 12:06:14;;;;;;;25.37;14.57;;;0.40;99.90;;;;;;6096901;23;20107;-85
2022/12/15 12:13:23;;;;;;;26.00;14.77;;;0.40;99.90;;;;;;5972530;23;20046;-85
2022/12/15 12:26:44;;;;;;;24.60;14.13;;;0.60;99.90;;;;;;6029862;23;20439;-85
2022/12/15 12:30:12;;;;;;;23.87;15.53;;;-0.30;99.90;;;;;;6096214;23;20077;-84
2022/12/15 12:33:52;;;;;;;24.27;14.30;;;-0.60;99.90;;;;;;6095842;23;20086;-87
2022/12/15 12:36:23;;;;;;;24.07;15.07;;;0.90;99.90;;;;;;6070742;23;20098;-83
2022/12/15 12:38:58;;;;;;;23.27;13.97;;;0.10;99.90;;;;;;6095103;23;20041;-83
2022/12/15 12:41:54;;;;;;;27.13;14.43;;;1.00;99.90;;;;;;6096388;23;20066;-83
2022/12/15 12:44:37;;;;;;;23.90;14.10;;;0.30;99.90;;;;;;6096388;23;20395;-83
2022/12/15 12:47:24;;;;;;;24.97;15.17;;;0.20;99.90;;;;;;6069853;23;20022;-83
2022/12/15 12:50:27;;;;;;;;;;;;;;;;;;;;;
2022/12/15 12:53:32;;;;;;;22.90;14.70;;;0.40;99.90;;;;;;6032889;23;20018;-83
2022/12/15 12:56:41;;;;;;;25.97;15.60;;;1.70;99.90;;;;;;6099653;23;20021;-83
2022/12/15 12:59:57;;;;;;;25.70;14.83;;;1.70;99.90;;;;;;6079773;23;20015;-83
2022/12/15 13:02:35;;;;;;;;;;;;;;;;;;;;;
2022/12/15 13:06:16;;;;;;;27.33;14.97;;;2.10;99.90;;;;;;6014181;23;20031;-84
2022/12/15 13:09:40;;;;;;;25.43;15.40;;;0.20;99.90;;;;;;5935363;24;20025;-83
2022/12/15 13:12:46;;;;;;;26.80;14.67;;;1.20;99.90;;;;;;6017498;23;20446;-83
2022/12/15 13:15:49;;;;;;;26.60;15.40;;;2.10;99.90;;;;;;5989087;23;20111;-83
2022/12/15 13:18:20;;;;;;;24.43;14.77;;;0.60;99.90;;;;;;5985456;23;20024;-83
2022/12/15 13:21:40;;;;;;;23.80;14.70;;;1.40;99.90;;;;;;6008924;23;20083;-83
2022/12/15 13:24:34;;;;;;;29.10;15.40;;;1.30;99.90;;;;;;5986499;23;20123;-83
2022/12/15 13:27:07;;;;;;;29.17;17.17;;;0.80;99.90;;;;;;6098079;23;20014;-83
2022/12/15 13:29:34;;;;;;;25.67;15.73;;;0.70;99.90;;;;;;6097692;23;20443;-83
2022/12/15 13:32:00;;;;;;;27.97;15.23;;;0.80;99.90;;;;;;6072589;23;20351;-83
2022/12/15 13:34:28;;;;;;;26.40;15.80;;;0.80;99.90;;;;;;6070892;23;20351;-84
2022/12/15 13:36:58;;;;;;;29.57;15.57;;;2.10;99.90;;;;;;6071558;23;20075;-83
2022/12/15 13:39:26;;;;;;;27.50;16.73;;;1.00;99.90;;;;;;6071930;23;20025;-83
2022/12/15 13:42:01;;;;;;;28.37;17.60;;;1.00;99.90;;;;;;6104730;23;20050;-82
2022/12/15 13:44:34;;;;;;;24.87;15.57;;;1.10;99.90;;;;;;6071843;23;20105;-83
2022/12/15 13:47:13;;;;;;;28.10;15.73;;;1.00;99.90;;;;;;6098140;23;20029;-83
2022/12/15 13:49:56;;;;;;;25.43;16.03;;;1.00;99.90;;;;;;6070853;23;20343;-83
2022/12/15 13:52:22;;;;;;;26.80;15.25;;;1.00;99.90;;;;;;6097487;23;20018;-82
2022/12/15 13:54:57;;;;;;;27.47;16.10;;;0.90;99.90;;;;;;6097979;23;20026;-83
2022/12/15 13:57:25;;;;;;;25.80;15.03;;;2.40;99.90;;;;;;6096420;23;20026;-83
2022/12/15 13:59:55;;;;;;;25.30;15.07;;;0.80;99.90;;;;;;6072446;23;20388;-83
2022/12/15 14:02:29;;;;;;;27.73;15.80;;;0.90;99.90;;;;;;6065961;23;20015;-82
2022/12/15 14:05:16;;;;;;;;;;;0.80;99.90;;;;;;6098427;23;20073;-83
2022/12/15 14:07:45;;;;;;;24.70;16.20;;;0.80;99.90;;;;;;6071815;23;20006;-83
2022/12/15 14:10:40;;;;;;;27.37;15.80;;;0.70;99.90;;;;;;6071053;23;20010;-83
2022/12/15 14:13:18;;;;;;;28.13;17.03;;;0.60;99.90;;;;;;6071691;23;20025;-83
2022/12/15 14:15:47;;;;;;;29.53;16.77;;;0.60;99.90;;;;;;6075901;23;20053;-83
2022/12/15 14:18:28;;;;;;;30.93;17.33;;;0.50;99.90;;;;;;6074504;23;20363;-83
2022/12/15 14:21:34;;;;;;;26.87;17.40;;;0.40;99.90;;;;;;6034493;23;20021;-83
2022/12/15 14:24:42;;;;;;;32.17;19.57;;;0.00;99.90;;;;;;6095830;23;20023;-83
2022/12/15 14:27:52;;;;;;;28.90;17.47;;;0.50;99.90;;;;;;6071911;23;20058;-83
2022/12/15 14:30:37;;;;;;;26.30;16.67;;;1.00;99.90;;;;;;6071256;23;20105;-83
2022/12/15 14:33:37;;;;;;;29.53;17.07;;;0.20;99.90;;;;;;6070067;23;20098;-83
2022/12/15 14:36:29;;;;;;;28.27;17.30;;;0.20;99.90;;;;;;6067702;23;20018;-84
2022/12/15 14:39:22;;;;;;;30.77;16.90;;;1.30;99.90;;;;;;6071087;23;20015;-83
2022/12/15 14:42:00;;;;;;;29.27;17.57;;;0.50;99.90;;;;;;6071744;23;20022;-83
2022/12/15 14:45:04;;;;;;;27.47;17.83;;;0.50;99.90;;;;;;6071346;23;20010;-83
2022/12/15 14:47:39;;;;;;;31.15;18.40;;;-1.00;99.90;;;;;;6075687;23;20018;-83
2022/12/15 14:50:13;;;;;;;31.73;18.97;;;-0.20;99.90;;;;;;6071514;23;20064;-83
2022/12/15 14:52:40;;;;;;;;;;;0.60;99.90;;;;;;6106463;23;20328;-82
2022/12/15 14:58:02;;;;;;;34.53;19.57;;;0.40;99.90;;;;;;6101431;23;20129;-83
2022/12/15 15:03:40;;;;;;;29.87;19.73;;;-0.40;99.90;;;;;;6118456;23;20033;-82
2022/12/15 15:06:17;;;;;;;36.87;20.70;;;-0.90;99.90;;;;;;6071363;23;20452;-83
2022/12/15 15:09:36;;;;;;;32.60;20.13;;;-0.40;99.90;;;;;;6097249;23;20014;-83
2022/12/15 15:15:19;;;;;;;33.80;21.67;;;-0.80;99.90;;;;;;6104087;23;20049;-84
2022/12/15 15:17:59;;;;;;;34.53;21.43;;;-0.40;99.90;;;;;;6097539;23;20014;-83
2022/12/15 15:20:34;;;;;;;38.37;23.13;;;-0.90;99.90;;;;;;6070843;23;20045;-83
2022/12/15 15:23:08;;;;;;;35.23;22.50;;;-1.10;99.90;;;;;;6073686;23;20027;-83
2022/12/15 15:25:59;;;;;;;;;;;-0.70;99.90;;;;;;6071441;23;20029;-83
2022/12/15 15:28:42;;;;;;;36.33;22.33;;;-0.70;99.90;;;;;;6070397;23;19951;-83
2022/12/15 15:31:33;;;;;;;39.10;23.00;;;-1.20;99.90;;;;;;6072978;23;20023;-83
2022/12/15 15:33:59;;;;;;;35.50;23.27;;;-0.90;99.90;;;;;;6070294;23;20050;-83
2022/12/15 15:36:43;;;;;;;38.70;23.17;;;-0.20;99.90;;;;;;6071080;23;20089;-83
2022/12/15 15:39:27;;;;;;;38.80;23.52;;;-1.40;99.90;;;;;;6071392;23;20374;-83
2022/12/15 15:42:14;;;;;;;39.07;24.10;;;-1.40;99.90;;;;;;6070727;23;20015;-82
2022/12/15 15:45:02;;;;;;;36.93;24.07;;;0.90;99.90;;;;;;6097184;23;20443;-82
2022/12/15 15:47:50;;;;;;;40.80;24.27;;;-0.50;99.90;;;;;;6096688;23;20021;-83
2022/12/15 15:50:42;;;;;;;39.27;23.93;;;-1.90;99.90;;;;;;6070640;23;20014;-83
2022/12/15 15:53:33;;;;;;;38.23;22.93;;;-0.10;99.90;;;;;;6071160;23;20022;-83
2022/12/15 15:56:26;;;;;;;39.17;24.17;;;-2.20;99.90;;;;;;6096363;23;20025;-85
2022/12/15 15:59:19;;;;;;;38.30;23.97;;;-0.80;99.90;;;;;;6071764;23;20015;-85
2022/12/15 16:02:07;;;;;;;38.30;24.70;;;-0.40;99.90;;;;;;6082925;23;20023;-85
2022/12/15 16:05:27;;;;;;;40.33;25.83;;;-1.70;99.90;;;;;;6071500;23;20064;-87
2022/12/15 16:13:00;;;;;;;;;;;;;;;;;;;;;
2022/12/15 16:15:57;;;;;;;37.97;25.03;;;-0.20;99.90;;;;;;6019008;23;20033;-84
2022/12/15 16:29:37;;;;;;;38.07;24.70;;;-1.90;99.90;;;;;;6096559;23;20147;-84
2022/12/15 16:38:24;;;;;;;41.13;25.43;;;-1.90;99.90;;;;;;6131269;23;20077;-82
2022/12/15 16:41:26;;;;;;;;;;;;;;;;;;;;;
2022/12/15 16:44:17;;;;;;;41.13;26.83;;;-2.80;99.90;;;;;;6026694;23;20022;-85
2022/12/15 16:47:04;;;;;;;42.60;26.33;;;-1.80;99.90;;;;;;6097342;23;20120;-85
2022/12/15 16:58:47;;;;;;;45.58;28.95;;;-1.50;99.90;;;;;;6046214;23;20026;-87
2022/12/15 17:01:28;;;;;;;42.10;27.37;;;-1.50;99.90;;;;;;6098681;23;20015;-87
2022/12/15 17:04:09;;;;;;;44.60;27.27;;;-2.10;99.90;;;;;;6098760;23;20014;-86
2022/12/15 17:06:55;;;;;;;41.40;26.13;;;-1.80;99.90;;;;;;6102653;23;20022;-87
2022/12/15 17:09:54;;;;;;;45.60;30.27;;;-1.00;99.90;;;;;;6098486;23;20014;-87
2022/12/15 17:13:06;;;;;;;42.60;26.83;;;-1.20;99.90;;;;;;6090700;23;20006;-86
2022/12/15 17:18:55;;;;;;;42.83;27.17;;;-1.90;99.90;;;;;;6016383;23;20023;-83
2022/12/15 17:21:55;;;;;;;43.67;26.37;;;-1.10;99.90;;;;;;6072386;23;20065;-82
2022/12/15 17:24:21;;;;;;;46.20;27.50;;;-1.90;99.90;;;;;;6071095;23;20018;-86
2022/12/15 17:27:10;;;;;;;44.03;26.40;;;-2.40;99.90;;;;;;6097432;23;20020;-84
2022/12/15 17:29:40;;;;;;;45.90;26.67;;;-1.30;99.90;;;;;;6072885;23;20081;-85
2022/12/15 17:32:11;;;;;;;43.47;27.27;;;-2.70;99.90;;;;;;6098078;23;20382;-84
2022/12/15 17:34:40;;;;;;;45.80;26.83;;;-2.30;99.90;;;;;;6071525;23;20022;-84
2022/12/15 17:37:13;;;;;;;46.07;27.07;;;-2.50;99.90;;;;;;6098477;23;20025;-84
2022/12/15 17:39:49;;;;;;;41.67;25.88;;;-2.30;99.90;;;;;;6072511;23;20116;-85
2022/12/15 17:42:40;;;;;;;46.83;27.70;;;-2.50;99.90;;;;;;6097049;23;20017;-84
2022/12/15 17:45:22;;;;;;;44.37;29.13;;;-1.30;99.90;;;;;;6097994;23;20019;-85
2022/12/15 17:47:49;;;;;;;46.17;28.80;;;-2.00;99.90;;;;;;6113587;23;20447;-85
2022/12/15 17:50:37;;;;;;;44.23;27.97;;;-2.30;99.90;;;;;;6071640;23;20019;-85
2022/12/15 17:53:12;;;;;;;45.23;27.33;;;-1.30;99.90;;;;;;6072609;23;20014;-85
2022/12/15 17:55:41;;;;;;;42.53;27.70;;;-2.00;99.90;;;;;;6071407;23;20062;-85
2022/12/15 17:58:38;;;;;;;44.10;28.40;;;-2.50;99.90;;;;;;6071582;23;20015;-85
2022/12/15 18:01:13;;;;;;;43.80;28.00;;;-3.10;99.90;;;;;;6097601;23;20018;-85
2022/12/15 18:03:50;;;;;;;44.93;27.87;;;-1.20;99.90;;;;;;6102065;23;20018;-84
2022/12/15 18:06:16;;;;;;;43.30;27.70;;;-2.60;99.90;;;;;;6073886;23;20093;-86
2022/12/15 18:08:49;;;;;;;48.13;28.93;;;-3.60;99.90;;;;;;6071666;23;20086;-85
2022/12/15 18:11:15;;;;;;;42.17;28.03;;;-2.30;99.90;;;;;;6076507;23;20018;-85
2022/12/15 18:13:59;;;;;;;45.97;28.67;;;-2.80;99.90;;;;;;6099141;23;20030;-85
2022/12/15 18:16:40;;;;;;;;;;;-1.70;99.90;;;;;;6071718;23;20014;-85
2022/12/15 18:19:12;;;;;;;48.07;28.67;;;-2.10;99.90;;;;;;6098048;23;19917;-85
2022/12/15 18:26:45;;;;;;;41.47;27.97;;;-2.60;99.90;;;;;;6031077;23;20038;-85
2022/12/15 18:29:17;;;;;;;46.73;28.20;;;-1.50;99.90;;;;;;6036829;23;20027;-85
2022/12/15 18:31:49;;;;;;;45.57;28.70;;;-1.10;99.90;;;;;;6013024;23;20015;-85